Amonate, Virginia
Current Conditions -  °F | °C
As of 2:35 PM on Thursday 27 Nov 2014 (Local Time) from KJFZ Reporting Station
Overcast Overcast  
Wind Chill: 24°   Ceiling: 800
Heat Index: 32°   Visibility: 10mi
Dew Point: 28°   Wind: 9mph
Humidity: 86%   Direction: 310°NW
Pressure: 30.12"   Gusts: NA
Location:  37.19°N, 81.64°W
Report Text: KJFZ 271935Z AUTO 31008KT 290V350 10SM OVC008 00/M02 A3012 RMK AO2 T10011022
Loading
Personal Weather Stations






























Interactive Weather Map New forecast layout! Learn more

10-Day Weather Forecast

Advertisements
Track Severe Weather on mobile